sensor_id;sensor_type;location;lat;lon;timestamp;P1;durP1;ratioP1;P2;durP2;ratioP2
25982;SDS011;13773;48.868;10.730;2024-02-26T00:01:39;8.77;;;6.10;;
25982;SDS011;13773;48.868;10.730;2024-02-26T00:04:05;12.10;;;7.77;;
25982;SDS011;13773;48.868;10.730;2024-02-26T00:06:31;11.97;;;6.33;;
25982;SDS011;13773;48.868;10.730;2024-02-26T00:08:57;11.10;;;6.53;;
25982;SDS011;13773;48.868;10.730;2024-02-26T00:11:23;10.23;;;6.27;;
25982;SDS011;13773;48.868;10.730;2024-02-26T00:13:48;10.20;;;6.33;;
25982;SDS011;13773;48.868;10.730;2024-02-26T00:16:14;11.20;;;7.07;;
25982;SDS011;13773;48.868;10.730;2024-02-26T00:18:40;12.67;;;7.33;;
25982;SDS011;13773;48.868;10.730;2024-02-26T00:21:05;8.73;;;6.57;;
25982;SDS011;13773;48.868;10.730;2024-02-26T00:23:31;10.67;;;6.83;;
25982;SDS011;13773;48.868;10.730;2024-02-26T00:25:57;10.60;;;6.77;;
25982;SDS011;13773;48.868;10.730;2024-02-26T00:28:23;11.00;;;6.67;;
25982;SDS011;13773;48.868;10.730;2024-02-26T00:30:49;10.93;;;7.10;;
25982;SDS011;13773;48.868;10.730;2024-02-26T00:33:20;11.73;;;7.73;;
25982;SDS011;13773;48.868;10.730;2024-02-26T00:35:47;12.50;;;7.07;;
25982;SDS011;13773;48.868;10.730;2024-02-26T00:38:13;14.53;;;8.40;;
25982;SDS011;13773;48.868;10.730;2024-02-26T00:40:38;12.27;;;7.93;;
25982;SDS011;13773;48.868;10.730;2024-02-26T00:43:05;13.63;;;8.47;;
25982;SDS011;13773;48.868;10.730;2024-02-26T00:45:34;11.63;;;7.93;;
25982;SDS011;13773;48.868;10.730;2024-02-26T00:48:00;13.43;;;8.20;;
25982;SDS011;13773;48.868;10.730;2024-02-26T00:50:29;15.23;;;8.87;;
25982;SDS011;13773;48.868;10.730;2024-02-26T00:52:55;11.03;;;8.03;;
25982;SDS011;13773;48.868;10.730;2024-02-26T00:55:21;13.17;;;8.47;;
25982;SDS011;13773;48.868;10.730;2024-02-26T00:57:46;13.43;;;8.77;;
25982;SDS011;13773;48.868;10.730;2024-02-26T01:00:12;15.67;;;8.70;;
25982;SDS011;13773;48.868;10.730;2024-02-26T01:02:38;12.80;;;7.70;;
25982;SDS011;13773;48.868;10.730;2024-02-26T01:05:05;12.70;;;7.87;;
25982;SDS011;13773;48.868;10.730;2024-02-26T01:07:31;14.60;;;8.43;;
25982;SDS011;13773;48.868;10.730;2024-02-26T01:10:01;12.53;;;7.63;;
25982;SDS011;13773;48.868;10.730;2024-02-26T01:12:27;15.13;;;8.83;;
25982;SDS011;13773;48.868;10.730;2024-02-26T01:14:52;12.87;;;8.63;;
25982;SDS011;13773;48.868;10.730;2024-02-26T01:17:18;11.93;;;8.07;;
25982;SDS011;13773;48.868;10.730;2024-02-26T01:19:44;16.17;;;8.60;;
25982;SDS011;13773;48.868;10.730;2024-02-26T01:22:09;12.87;;;8.57;;
25982;SDS011;13773;48.868;10.730;2024-02-26T01:24:35;12.70;;;7.50;;
25982;SDS011;13773;48.868;10.730;2024-02-26T01:27:01;12.10;;;8.27;;
25982;SDS011;13773;48.868;10.730;2024-02-26T01:29:26;12.97;;;7.50;;
25982;SDS011;13773;48.868;10.730;2024-02-26T01:31:52;15.73;;;8.57;;
25982;SDS011;13773;48.868;10.730;2024-02-26T01:34:18;12.50;;;9.10;;
25982;SDS011;13773;48.868;10.730;2024-02-26T01:36:43;15.20;;;8.00;;
25982;SDS011;13773;48.868;10.730;2024-02-26T01:39:09;12.97;;;8.73;;
25982;SDS011;13773;48.868;10.730;2024-02-26T01:41:38;13.07;;;8.57;;
25982;SDS011;13773;48.868;10.730;2024-02-26T01:44:05;13.13;;;7.67;;
25982;SDS011;13773;48.868;10.730;2024-02-26T01:46:31;14.73;;;8.13;;
25982;SDS011;13773;48.868;10.730;2024-02-26T01:49:01;13.17;;;7.67;;
25982;SDS011;13773;48.868;10.730;2024-02-26T01:51:28;10.90;;;7.70;;
25982;SDS011;13773;48.868;10.730;2024-02-26T01:53:55;11.87;;;7.07;;
25982;SDS011;13773;48.868;10.730;2024-02-26T01:56:22;11.47;;;7.70;;
25982;SDS011;13773;48.868;10.730;2024-02-26T01:58:53;11.77;;;8.07;;
25982;SDS011;13773;48.868;10.730;2024-02-26T02:01:19;13.37;;;7.53;;
25982;SDS011;13773;48.868;10.730;2024-02-26T02:03:47;10.23;;;7.17;;
25982;SDS011;13773;48.868;10.730;2024-02-26T02:06:13;10.27;;;6.90;;
25982;SDS011;13773;48.868;10.730;2024-02-26T02:08:39;9.73;;;6.93;;
25982;SDS011;13773;48.868;10.730;2024-02-26T02:11:05;11.53;;;7.87;;
25982;SDS011;13773;48.868;10.730;2024-02-26T02:13:32;11.27;;;7.43;;
25982;SDS011;13773;48.868;10.730;2024-02-26T02:15:57;12.60;;;8.03;;
25982;SDS011;13773;48.868;10.730;2024-02-26T02:18:23;11.93;;;8.03;;
25982;SDS011;13773;48.868;10.730;2024-02-26T02:20:49;15.50;;;8.33;;
25982;SDS011;13773;48.868;10.730;2024-02-26T02:23:14;11.27;;;7.53;;
25982;SDS011;13773;48.868;10.730;2024-02-26T02:25:40;13.40;;;8.27;;
25982;SDS011;13773;48.868;10.730;2024-02-26T02:28:05;12.50;;;7.47;;
25982;SDS011;13773;48.868;10.730;2024-02-26T02:30:31;10.97;;;7.90;;
25982;SDS011;13773;48.868;10.730;2024-02-26T02:32:58;11.97;;;8.23;;
25982;SDS011;13773;48.868;10.730;2024-02-26T02:35:24;12.37;;;7.50;;
25982;SDS011;13773;48.868;10.730;2024-02-26T02:37:53;14.47;;;8.07;;
25982;SDS011;13773;48.868;10.730;2024-02-26T02:40:19;12.00;;;8.13;;
25982;SDS011;13773;48.868;10.730;2024-02-26T02:42:45;10.00;;;7.50;;
25982;SDS011;13773;48.868;10.730;2024-02-26T02:45:10;12.50;;;8.17;;
25982;SDS011;13773;48.868;10.730;2024-02-26T02:47:36;12.97;;;8.50;;
25982;SDS011;13773;48.868;10.730;2024-02-26T02:50:05;12.57;;;7.40;;
25982;SDS011;13773;48.868;10.730;2024-02-26T02:52:31;13.37;;;8.47;;
25982;SDS011;13773;48.868;10.730;2024-02-26T02:54:57;12.13;;;7.33;;
25982;SDS011;13773;48.868;10.730;2024-02-26T02:57:23;12.33;;;8.43;;
25982;SDS011;13773;48.868;10.730;2024-02-26T02:59:49;12.70;;;7.70;;
25982;SDS011;13773;48.868;10.730;2024-02-26T03:02:14;11.87;;;7.43;;
25982;SDS011;13773;48.868;10.730;2024-02-26T03:04:40;12.23;;;7.70;;
25982;SDS011;13773;48.868;10.730;2024-02-26T03:07:06;12.80;;;8.17;;
25982;SDS011;13773;48.868;10.730;2024-02-26T03:09:31;9.40;;;7.27;;
25982;SDS011;13773;48.868;10.730;2024-02-26T03:11:57;11.77;;;8.03;;
25982;SDS011;13773;48.868;10.730;2024-02-26T03:14:23;12.57;;;7.77;;
25982;SDS011;13773;48.868;10.730;2024-02-26T03:16:49;10.67;;;7.00;;
25982;SDS011;13773;48.868;10.730;2024-02-26T03:19:15;10.67;;;7.03;;
25982;SDS011;13773;48.868;10.730;2024-02-26T03:21:43;11.10;;;6.53;;
25982;SDS011;13773;48.868;10.730;2024-02-26T03:24:09;10.53;;;6.60;;
25982;SDS011;13773;48.868;10.730;2024-02-26T03:26:35;12.20;;;7.23;;
25982;SDS011;13773;48.868;10.730;2024-02-26T03:29:02;10.53;;;7.27;;
25982;SDS011;13773;48.868;10.730;2024-02-26T03:31:28;10.37;;;7.13;;
25982;SDS011;13773;48.868;10.730;2024-02-26T03:33:53;10.07;;;6.93;;
25982;SDS011;13773;48.868;10.730;2024-02-26T03:36:19;12.00;;;7.07;;
25982;SDS011;13773;48.868;10.730;2024-02-26T03:38:46;9.30;;;6.73;;
25982;SDS011;13773;48.868;10.730;2024-02-26T03:41:12;9.47;;;6.57;;
25982;SDS011;13773;48.868;10.730;2024-02-26T03:43:38;9.33;;;6.40;;
25982;SDS011;13773;48.868;10.730;2024-02-26T03:46:07;11.30;;;8.03;;
25982;SDS011;13773;48.868;10.730;2024-02-26T03:48:33;9.73;;;6.33;;
25982;SDS011;13773;48.868;10.730;2024-02-26T03:50:59;10.30;;;6.87;;
25982;SDS011;13773;48.868;10.730;2024-02-26T03:53:25;13.57;;;7.47;;
25982;SDS011;13773;48.868;10.730;2024-02-26T03:55:51;12.17;;;7.53;;
25982;SDS011;13773;48.868;10.730;2024-02-26T03:58:17;9.37;;;6.57;;
25982;SDS011;13773;48.868;10.730;2024-02-26T04:00:43;10.47;;;7.33;;
25982;SDS011;13773;48.868;10.730;2024-02-26T04:03:09;11.53;;;7.40;;
25982;SDS011;13773;48.868;10.730;2024-02-26T04:05:35;14.03;;;8.23;;
25982;SDS011;13773;48.868;10.730;2024-02-26T04:08:01;13.30;;;8.80;;
25982;SDS011;13773;48.868;10.730;2024-02-26T04:10:29;12.23;;;8.40;;
25982;SDS011;13773;48.868;10.730;2024-02-26T04:12:54;12.90;;;8.50;;
25982;SDS011;13773;48.868;10.730;2024-02-26T04:15:20;13.63;;;8.50;;
25982;SDS011;13773;48.868;10.730;2024-02-26T04:17:46;13.03;;;8.77;;
25982;SDS011;13773;48.868;10.730;2024-02-26T04:20:13;12.63;;;8.80;;
25982;SDS011;13773;48.868;10.730;2024-02-26T04:22:40;12.23;;;8.60;;
25982;SDS011;13773;48.868;10.730;2024-02-26T04:25:06;12.67;;;8.40;;
25982;SDS011;13773;48.868;10.730;2024-02-26T04:27:32;13.10;;;8.40;;
25982;SDS011;13773;48.868;10.730;2024-02-26T04:29:58;13.43;;;8.47;;
25982;SDS011;13773;48.868;10.730;2024-02-26T04:32:23;11.53;;;8.00;;
25982;SDS011;13773;48.868;10.730;2024-02-26T04:34:49;10.20;;;7.47;;
25982;SDS011;13773;48.868;10.730;2024-02-26T04:37:15;10.43;;;7.77;;
25982;SDS011;13773;48.868;10.730;2024-02-26T04:39:40;12.10;;;8.33;;
25982;SDS011;13773;48.868;10.730;2024-02-26T04:42:06;10.00;;;7.17;;
25982;SDS011;13773;48.868;10.730;2024-02-26T04:44:31;11.17;;;7.57;;
25982;SDS011;13773;48.868;10.730;2024-02-26T04:46:57;12.33;;;8.13;;
25982;SDS011;13773;48.868;10.730;2024-02-26T04:49:23;10.17;;;7.03;;
25982;SDS011;13773;48.868;10.730;2024-02-26T04:51:49;12.10;;;8.20;;
25982;SDS011;13773;48.868;10.730;2024-02-26T04:54:14;11.17;;;7.70;;
25982;SDS011;13773;48.868;10.730;2024-02-26T04:56:40;12.17;;;7.90;;
25982;SDS011;13773;48.868;10.730;2024-02-26T04:59:06;11.60;;;7.47;;
25982;SDS011;13773;48.868;10.730;2024-02-26T05:01:31;12.20;;;7.77;;
25982;SDS011;13773;48.868;10.730;2024-02-26T05:03:57;11.33;;;6.80;;
25982;SDS011;13773;48.868;10.730;2024-02-26T05:06:23;10.37;;;7.33;;
25982;SDS011;13773;48.868;10.730;2024-02-26T05:08:48;10.83;;;8.07;;
25982;SDS011;13773;48.868;10.730;2024-02-26T05:11:14;11.87;;;7.90;;
25982;SDS011;13773;48.868;10.730;2024-02-26T05:13:39;11.83;;;7.90;;
25982;SDS011;13773;48.868;10.730;2024-02-26T05:16:06;11.17;;;7.00;;
25982;SDS011;13773;48.868;10.730;2024-02-26T05:18:31;15.13;;;8.20;;
25982;SDS011;13773;48.868;10.730;2024-02-26T05:20:57;12.40;;;7.80;;
25982;SDS011;13773;48.868;10.730;2024-02-26T05:23:22;11.40;;;7.17;;
25982;SDS011;13773;48.868;10.730;2024-02-26T05:25:48;11.00;;;7.03;;
25982;SDS011;13773;48.868;10.730;2024-02-26T05:28:14;11.80;;;7.60;;
25982;SDS011;13773;48.868;10.730;2024-02-26T05:30:45;10.83;;;7.23;;
25982;SDS011;13773;48.868;10.730;2024-02-26T05:33:11;10.03;;;7.23;;
25982;SDS011;13773;48.868;10.730;2024-02-26T05:35:37;14.80;;;7.53;;
25982;SDS011;13773;48.868;10.730;2024-02-26T05:38:03;13.07;;;8.33;;
25982;SDS011;13773;48.868;10.730;2024-02-26T05:40:28;11.10;;;7.40;;
25982;SDS011;13773;48.868;10.730;2024-02-26T05:42:55;11.57;;;8.43;;
25982;SDS011;13773;48.868;10.730;2024-02-26T05:45:21;11.33;;;7.10;;
25982;SDS011;13773;48.868;10.730;2024-02-26T05:47:47;10.03;;;7.20;;
25982;SDS011;13773;48.868;10.730;2024-02-26T05:50:13;11.87;;;7.47;;
25982;SDS011;13773;48.868;10.730;2024-02-26T05:52:40;12.00;;;8.27;;
25982;SDS011;13773;48.868;10.730;2024-02-26T05:55:06;10.17;;;7.70;;
25982;SDS011;13773;48.868;10.730;2024-02-26T05:57:32;9.90;;;7.30;;
25982;SDS011;13773;48.868;10.730;2024-02-26T05:59:59;11.20;;;7.17;;
25982;SDS011;13773;48.868;10.730;2024-02-26T06:02:30;10.63;;;6.97;;
25982;SDS011;13773;48.868;10.730;2024-02-26T06:04:56;11.50;;;7.47;;
25982;SDS011;13773;48.868;10.730;2024-02-26T06:07:22;10.33;;;7.73;;
25982;SDS011;13773;48.868;10.730;2024-02-26T06:09:48;14.10;;;7.77;;
25982;SDS011;13773;48.868;10.730;2024-02-26T06:12:14;11.17;;;6.90;;
25982;SDS011;13773;48.868;10.730;2024-02-26T06:14:41;12.83;;;7.60;;
25982;SDS011;13773;48.868;10.730;2024-02-26T06:17:07;11.13;;;7.40;;
25982;SDS011;13773;48.868;10.730;2024-02-26T06:19:32;11.13;;;7.13;;
25982;SDS011;13773;48.868;10.730;2024-02-26T06:21:58;11.87;;;8.10;;
25982;SDS011;13773;48.868;10.730;2024-02-26T06:24:24;14.90;;;8.37;;
25982;SDS011;13773;48.868;10.730;2024-02-26T06:26:49;10.70;;;7.07;;
25982;SDS011;13773;48.868;10.730;2024-02-26T06:29:15;13.33;;;7.77;;
25982;SDS011;13773;48.868;10.730;2024-02-26T06:31:40;14.57;;;9.07;;
25982;SDS011;13773;48.868;10.730;2024-02-26T06:34:06;12.47;;;8.57;;
25982;SDS011;13773;48.868;10.730;2024-02-26T06:36:32;15.27;;;8.57;;
25982;SDS011;13773;48.868;10.730;2024-02-26T06:38:58;12.17;;;8.43;;
25982;SDS011;13773;48.868;10.730;2024-02-26T06:41:23;10.80;;;7.13;;
25982;SDS011;13773;48.868;10.730;2024-02-26T06:43:55;12.60;;;8.30;;
25982;SDS011;13773;48.868;10.730;2024-02-26T06:46:21;12.83;;;9.00;;
25982;SDS011;13773;48.868;10.730;2024-02-26T06:48:48;12.87;;;8.30;;
25982;SDS011;13773;48.868;10.730;2024-02-26T06:51:14;13.33;;;7.90;;
25982;SDS011;13773;48.868;10.730;2024-02-26T06:53:40;12.20;;;7.67;;
25982;SDS011;13773;48.868;10.730;2024-02-26T06:56:06;12.67;;;8.00;;
25982;SDS011;13773;48.868;10.730;2024-02-26T06:58:31;13.10;;;8.47;;
25982;SDS011;13773;48.868;10.730;2024-02-26T07:00:58;10.93;;;7.03;;
25982;SDS011;13773;48.868;10.730;2024-02-26T07:03:23;12.30;;;7.53;;
25982;SDS011;13773;48.868;10.730;2024-02-26T07:05:50;13.50;;;7.80;;
25982;SDS011;13773;48.868;10.730;2024-02-26T07:08:16;11.53;;;8.13;;
25982;SDS011;13773;48.868;10.730;2024-02-26T07:10:42;10.80;;;7.27;;
25982;SDS011;13773;48.868;10.730;2024-02-26T07:13:08;12.10;;;7.03;;
25982;SDS011;13773;48.868;10.730;2024-02-26T07:15:34;11.40;;;7.30;;
25982;SDS011;13773;48.868;10.730;2024-02-26T07:18:00;9.03;;;6.97;;
25982;SDS011;13773;48.868;10.730;2024-02-26T07:20:29;11.00;;;7.57;;
25982;SDS011;13773;48.868;10.730;2024-02-26T07:22:55;11.27;;;7.10;;
25982;SDS011;13773;48.868;10.730;2024-02-26T07:25:21;7.73;;;5.77;;
25982;SDS011;13773;48.868;10.730;2024-02-26T07:27:47;10.30;;;6.83;;
25982;SDS011;13773;48.868;10.730;2024-02-26T07:30:12;8.80;;;6.10;;
25982;SDS011;13773;48.868;10.730;2024-02-26T07:32:38;10.07;;;7.10;;
25982;SDS011;13773;48.868;10.730;2024-02-26T07:35:04;9.47;;;5.90;;
25982;SDS011;13773;48.868;10.730;2024-02-26T07:37:30;9.50;;;6.30;;
25982;SDS011;13773;48.868;10.730;2024-02-26T07:39:56;7.20;;;5.37;;
25982;SDS011;13773;48.868;10.730;2024-02-26T07:42:22;6.80;;;5.13;;
25982;SDS011;13773;48.868;10.730;2024-02-26T07:44:47;6.87;;;5.57;;
25982;SDS011;13773;48.868;10.730;2024-02-26T07:47:13;7.43;;;5.43;;
25982;SDS011;13773;48.868;10.730;2024-02-26T07:49:39;8.77;;;6.03;;
25982;SDS011;13773;48.868;10.730;2024-02-26T07:52:05;7.63;;;5.60;;
25982;SDS011;13773;48.868;10.730;2024-02-26T07:54:31;9.10;;;5.30;;
25982;SDS011;13773;48.868;10.730;2024-02-26T07:56:56;8.20;;;5.50;;
25982;SDS011;13773;48.868;10.730;2024-02-26T07:59:22;7.63;;;5.47;;
25982;SDS011;13773;48.868;10.730;2024-02-26T08:01:49;9.40;;;5.90;;
25982;SDS011;13773;48.868;10.730;2024-02-26T08:04:16;10.03;;;6.13;;
25982;SDS011;13773;48.868;10.730;2024-02-26T08:06:41;10.73;;;5.87;;
25982;SDS011;13773;48.868;10.730;2024-02-26T08:09:08;7.27;;;5.87;;
25982;SDS011;13773;48.868;10.730;2024-02-26T08:11:33;8.97;;;6.00;;
25982;SDS011;13773;48.868;10.730;2024-02-26T08:13:59;12.83;;;6.47;;
25982;SDS011;13773;48.868;10.730;2024-02-26T08:16:25;8.17;;;5.10;;
25982;SDS011;13773;48.868;10.730;2024-02-26T08:18:51;9.57;;;5.80;;
25982;SDS011;13773;48.868;10.730;2024-02-26T08:21:17;7.73;;;5.27;;
25982;SDS011;13773;48.868;10.730;2024-02-26T08:23:43;8.93;;;6.00;;
25982;SDS011;13773;48.868;10.730;2024-02-26T08:26:09;8.83;;;5.30;;
25982;SDS011;13773;48.868;10.730;2024-02-26T08:28:36;8.73;;;6.03;;
25982;SDS011;13773;48.868;10.730;2024-02-26T08:31:02;8.00;;;5.27;;
25982;SDS011;13773;48.868;10.730;2024-02-26T08:33:28;6.27;;;5.60;;
25982;SDS011;13773;48.868;10.730;2024-02-26T08:35:54;8.13;;;5.70;;
25982;SDS011;13773;48.868;10.730;2024-02-26T08:38:19;7.73;;;5.70;;
25982;SDS011;13773;48.868;10.730;2024-02-26T08:40:45;9.20;;;5.60;;
25982;SDS011;13773;48.868;10.730;2024-02-26T08:43:11;7.80;;;5.17;;
25982;SDS011;13773;48.868;10.730;2024-02-26T08:45:36;7.10;;;5.37;;
25982;SDS011;13773;48.868;10.730;2024-02-26T08:48:02;7.10;;;5.17;;
25982;SDS011;13773;48.868;10.730;2024-02-26T08:50:28;8.20;;;5.63;;
25982;SDS011;13773;48.868;10.730;2024-02-26T08:52:53;8.20;;;5.60;;
25982;SDS011;13773;48.868;10.730;2024-02-26T08:55:19;7.73;;;5.87;;
25982;SDS011;13773;48.868;10.730;2024-02-26T08:57:45;9.73;;;5.07;;
25982;SDS011;13773;48.868;10.730;2024-02-26T09:00:10;7.13;;;5.30;;
25982;SDS011;13773;48.868;10.730;2024-02-26T09:02:37;6.63;;;5.07;;
25982;SDS011;13773;48.868;10.730;2024-02-26T09:05:04;8.13;;;5.00;;
25982;SDS011;13773;48.868;10.730;2024-02-26T09:07:30;6.40;;;4.57;;
25982;SDS011;13773;48.868;10.730;2024-02-26T09:09:56;7.07;;;4.70;;
25982;SDS011;13773;48.868;10.730;2024-02-26T09:12:22;6.33;;;4.63;;
25982;SDS011;13773;48.868;10.730;2024-02-26T09:14:48;6.30;;;4.70;;
25982;SDS011;13773;48.868;10.730;2024-02-26T09:17:13;5.30;;;4.40;;
25982;SDS011;13773;48.868;10.730;2024-02-26T09:19:39;6.70;;;4.50;;
25982;SDS011;13773;48.868;10.730;2024-02-26T09:22:06;5.47;;;4.37;;
25982;SDS011;13773;48.868;10.730;2024-02-26T09:24:32;5.87;;;4.30;;
25982;SDS011;13773;48.868;10.730;2024-02-26T09:26:57;5.77;;;4.00;;
25982;SDS011;13773;48.868;10.730;2024-02-26T09:29:23;4.53;;;3.40;;
25982;SDS011;13773;48.868;10.730;2024-02-26T09:31:49;3.90;;;3.23;;
25982;SDS011;13773;48.868;10.730;2024-02-26T09:34:15;3.77;;;3.33;;
25982;SDS011;13773;48.868;10.730;2024-02-26T09:36:40;5.23;;;3.67;;
25982;SDS011;13773;48.868;10.730;2024-02-26T09:39:06;3.97;;;3.13;;
25982;SDS011;13773;48.868;10.730;2024-02-26T09:41:36;4.10;;;3.40;;
25982;SDS011;13773;48.868;10.730;2024-02-26T09:44:02;4.00;;;2.80;;
25982;SDS011;13773;48.868;10.730;2024-02-26T09:46:29;3.60;;;3.00;;
25982;SDS011;13773;48.868;10.730;2024-02-26T09:48:55;5.23;;;3.50;;
25982;SDS011;13773;48.868;10.730;2024-02-26T09:51:24;5.30;;;3.33;;
25982;SDS011;13773;48.868;10.730;2024-02-26T09:53:51;4.50;;;3.40;;
25982;SDS011;13773;48.868;10.730;2024-02-26T09:56:18;4.83;;;3.33;;
25982;SDS011;13773;48.868;10.730;2024-02-26T09:58:44;4.30;;;2.80;;
25982;SDS011;13773;48.868;10.730;2024-02-26T10:01:16;6.03;;;3.27;;
25982;SDS011;13773;48.868;10.730;2024-02-26T10:03:43;5.17;;;3.27;;
25982;SDS011;13773;48.868;10.730;2024-02-26T10:06:12;3.73;;;2.70;;
25982;SDS011;13773;48.868;10.730;2024-02-26T10:08:38;5.23;;;3.57;;
25982;SDS011;13773;48.868;10.730;2024-02-26T10:11:05;3.73;;;3.20;;
25982;SDS011;13773;48.868;10.730;2024-02-26T10:13:36;3.33;;;2.80;;
25982;SDS011;13773;48.868;10.730;2024-02-26T10:16:03;3.30;;;2.70;;
25982;SDS011;13773;48.868;10.730;2024-02-26T10:18:47;3.07;;;2.37;;
25982;SDS011;13773;48.868;10.730;2024-02-26T10:21:15;3.23;;;2.80;;
25982;SDS011;13773;48.868;10.730;2024-02-26T10:23:43;3.00;;;2.50;;
25982;SDS011;13773;48.868;10.730;2024-02-26T10:26:19;4.33;;;2.83;;
25982;SDS011;13773;48.868;10.730;2024-02-26T10:28:45;3.33;;;2.60;;
25982;SDS011;13773;48.868;10.730;2024-02-26T10:31:11;3.40;;;3.10;;
25982;SDS011;13773;48.868;10.730;2024-02-26T10:33:39;3.30;;;2.60;;
25982;SDS011;13773;48.868;10.730;2024-02-26T10:36:07;4.60;;;2.80;;
25982;SDS011;13773;48.868;10.730;2024-02-26T10:38:34;4.40;;;3.17;;
25982;SDS011;13773;48.868;10.730;2024-02-26T10:41:01;5.83;;;2.67;;
25982;SDS011;13773;48.868;10.730;2024-02-26T10:43:37;4.43;;;3.10;;
25982;SDS011;13773;48.868;10.730;2024-02-26T10:46:03;4.73;;;3.33;;
25982;SDS011;13773;48.868;10.730;2024-02-26T10:48:30;3.93;;;3.00;;
25982;SDS011;13773;48.868;10.730;2024-02-26T10:50:55;4.00;;;2.90;;
25982;SDS011;13773;48.868;10.730;2024-02-26T10:53:23;4.43;;;2.97;;
25982;SDS011;13773;48.868;10.730;2024-02-26T10:55:54;5.00;;;2.97;;
25982;SDS011;13773;48.868;10.730;2024-02-26T10:58:22;3.80;;;2.83;;
25982;SDS011;13773;48.868;10.730;2024-02-26T11:00:50;3.77;;;2.63;;
25982;SDS011;13773;48.868;10.730;2024-02-26T11:03:16;5.07;;;2.37;;
25982;SDS011;13773;48.868;10.730;2024-02-26T11:05:44;2.93;;;1.90;;
25982;SDS011;13773;48.868;10.730;2024-02-26T11:08:15;2.90;;;2.40;;
25982;SDS011;13773;48.868;10.730;2024-02-26T11:10:43;3.17;;;2.43;;
25982;SDS011;13773;48.868;10.730;2024-02-26T11:13:14;3.10;;;2.30;;
25982;SDS011;13773;48.868;10.730;2024-02-26T11:15:43;3.53;;;2.20;;
25982;SDS011;13773;48.868;10.730;2024-02-26T11:18:12;3.53;;;2.47;;
25982;SDS011;13773;48.868;10.730;2024-02-26T11:20:40;3.63;;;2.33;;
25982;SDS011;13773;48.868;10.730;2024-02-26T11:23:06;3.13;;;2.33;;
25982;SDS011;13773;48.868;10.730;2024-02-26T11:25:33;3.23;;;2.23;;
25982;SDS011;13773;48.868;10.730;2024-02-26T11:28:01;3.43;;;2.17;;
25982;SDS011;13773;48.868;10.730;2024-02-26T11:30:31;2.10;;;1.90;;
25982;SDS011;13773;48.868;10.730;2024-02-26T11:32:59;2.90;;;2.00;;
25982;SDS011;13773;48.868;10.730;2024-02-26T11:35:26;1.87;;;1.43;;
25982;SDS011;13773;48.868;10.730;2024-02-26T11:37:54;2.13;;;1.73;;
25982;SDS011;13773;48.868;10.730;2024-02-26T11:40:22;3.17;;;1.80;;
25982;SDS011;13773;48.868;10.730;2024-02-26T11:42:51;2.30;;;1.70;;
25982;SDS011;13773;48.868;10.730;2024-02-26T11:48:11;3.87;;;1.77;;
25982;SDS011;13773;48.868;10.730;2024-02-26T11:50:41;2.70;;;2.13;;
25982;SDS011;13773;48.868;10.730;2024-02-26T11:58:44;2.50;;;1.63;;
25982;SDS011;13773;48.868;10.730;2024-02-26T12:04:04;1.80;;;1.30;;
25982;SDS011;13773;48.868;10.730;2024-02-26T12:06:43;4.90;;;1.90;;
25982;SDS011;13773;48.868;10.730;2024-02-26T12:09:30;2.47;;;1.63;;
25982;SDS011;13773;48.868;10.730;2024-02-26T12:12:09;1.60;;;1.30;;
25982;SDS011;13773;48.868;10.730;2024-02-26T12:14:56;1.73;;;1.50;;
25982;SDS011;13773;48.868;10.730;2024-02-26T12:17:22;2.40;;;1.57;;
25982;SDS011;13773;48.868;10.730;2024-02-26T12:19:49;1.90;;;1.60;;
25982;SDS011;13773;48.868;10.730;2024-02-26T12:22:16;2.80;;;1.93;;
25982;SDS011;13773;48.868;10.730;2024-02-26T12:24:42;2.80;;;2.13;;
25982;SDS011;13773;48.868;10.730;2024-02-26T12:27:08;2.30;;;1.50;;
25982;SDS011;13773;48.868;10.730;2024-02-26T12:29:34;1.77;;;1.37;;
25982;SDS011;13773;48.868;10.730;2024-02-26T12:32:00;1.80;;;1.27;;
25982;SDS011;13773;48.868;10.730;2024-02-26T12:34:28;2.00;;;1.40;;
25982;SDS011;13773;48.868;10.730;2024-02-26T12:36:53;1.17;;;0.87;;
25982;SDS011;13773;48.868;10.730;2024-02-26T12:39:20;1.93;;;1.20;;
25982;SDS011;13773;48.868;10.730;2024-02-26T12:41:46;1.27;;;0.90;;
25982;SDS011;13773;48.868;10.730;2024-02-26T12:44:17;1.57;;;1.27;;
25982;SDS011;13773;48.868;10.730;2024-02-26T12:46:44;1.57;;;1.30;;
25982;SDS011;13773;48.868;10.730;2024-02-26T12:49:14;1.53;;;0.90;;
25982;SDS011;13773;48.868;10.730;2024-02-26T12:51:42;1.23;;;0.93;;
25982;SDS011;13773;48.868;10.730;2024-02-26T12:54:09;1.10;;;1.00;;
25982;SDS011;13773;48.868;10.730;2024-02-26T12:56:35;1.00;;;0.90;;
25982;SDS011;13773;48.868;10.730;2024-02-26T12:59:01;1.07;;;0.90;;
25982;SDS011;13773;48.868;10.730;2024-02-26T13:01:28;1.27;;;1.00;;
25982;SDS011;13773;48.868;10.730;2024-02-26T13:03:55;1.17;;;1.00;;
25982;SDS011;13773;48.868;10.730;2024-02-26T13:06:21;1.67;;;1.13;;
25982;SDS011;13773;48.868;10.730;2024-02-26T13:08:48;2.97;;;1.40;;
25982;SDS011;13773;48.868;10.730;2024-02-26T13:11:14;1.07;;;0.87;;
25982;SDS011;13773;48.868;10.730;2024-02-26T13:13:40;1.37;;;1.27;;
25982;SDS011;13773;48.868;10.730;2024-02-26T13:16:07;1.57;;;0.97;;
25982;SDS011;13773;48.868;10.730;2024-02-26T13:18:35;2.90;;;1.17;;
25982;SDS011;13773;48.868;10.730;2024-02-26T13:21:10;1.53;;;0.90;;
25982;SDS011;13773;48.868;10.730;2024-02-26T13:23:42;1.47;;;0.90;;
25982;SDS011;13773;48.868;10.730;2024-02-26T13:26:11;1.30;;;1.20;;
25982;SDS011;13773;48.868;10.730;2024-02-26T13:28:38;1.50;;;1.07;;
25982;SDS011;13773;48.868;10.730;2024-02-26T13:31:04;1.33;;;0.90;;
25982;SDS011;13773;48.868;10.730;2024-02-26T13:33:32;2.20;;;1.50;;
25982;SDS011;13773;48.868;10.730;2024-02-26T13:35:59;1.70;;;1.20;;
25982;SDS011;13773;48.868;10.730;2024-02-26T13:38:25;1.17;;;1.10;;
25982;SDS011;13773;48.868;10.730;2024-02-26T13:40:52;1.80;;;1.10;;
25982;SDS011;13773;48.868;10.730;2024-02-26T13:43:18;1.27;;;1.17;;
25982;SDS011;13773;48.868;10.730;2024-02-26T13:45:44;1.57;;;1.20;;
25982;SDS011;13773;48.868;10.730;2024-02-26T13:48:11;1.10;;;1.00;;
25982;SDS011;13773;48.868;10.730;2024-02-26T13:50:38;1.90;;;1.20;;
25982;SDS011;13773;48.868;10.730;2024-02-26T13:53:04;1.73;;;1.37;;
25982;SDS011;13773;48.868;10.730;2024-02-26T13:55:31;1.53;;;1.13;;
25982;SDS011;13773;48.868;10.730;2024-02-26T13:57:57;2.47;;;1.50;;
25982;SDS011;13773;48.868;10.730;2024-02-26T14:00:26;2.37;;;1.60;;
25982;SDS011;13773;48.868;10.730;2024-02-26T14:02:53;2.67;;;2.10;;
25982;SDS011;13773;48.868;10.730;2024-02-26T14:05:18;2.30;;;1.80;;
25982;SDS011;13773;48.868;10.730;2024-02-26T14:07:44;2.40;;;1.60;;
25982;SDS011;13773;48.868;10.730;2024-02-26T14:10:11;2.33;;;1.27;;
25982;SDS011;13773;48.868;10.730;2024-02-26T14:12:38;3.10;;;2.40;;
25982;SDS011;13773;48.868;10.730;2024-02-26T14:15:06;2.10;;;1.43;;
25982;SDS011;13773;48.868;10.730;2024-02-26T14:17:32;2.20;;;1.30;;
25982;SDS011;13773;48.868;10.730;2024-02-26T14:19:58;1.50;;;1.20;;
25982;SDS011;13773;48.868;10.730;2024-02-26T14:22:25;1.87;;;1.30;;
25982;SDS011;13773;48.868;10.730;2024-02-26T14:24:55;1.57;;;1.30;;
25982;SDS011;13773;48.868;10.730;2024-02-26T14:27:21;1.40;;;1.00;;
25982;SDS011;13773;48.868;10.730;2024-02-26T14:29:47;2.63;;;1.40;;
25982;SDS011;13773;48.868;10.730;2024-02-26T14:32:13;1.80;;;1.33;;
25982;SDS011;13773;48.868;10.730;2024-02-26T14:34:39;1.43;;;1.30;;
25982;SDS011;13773;48.868;10.730;2024-02-26T14:37:05;1.13;;;0.93;;